WetterOnline ( http://www.wetteronline.de )

Wetter aktuell Hittbergen

Aktuelles Wetter: Lüchow (18m)

6-stündlich | Neueste Meldungen
Ortszeit Temperatur Wetter
Mo, 22.01. 19:00 1.0° C Regen
Mo, 22.01. 13:00 1.1° C leichter Schneefall
Mo, 22.01. 7:00 0.3° C bedeckt
Mo, 22.01. 1:00 -0.9° C bedeckt
So, 21.01. 19:00 -0.8° C Nebel
So, 21.01. 13:00 -1.0° C Nebel
So, 21.01. 7:00 -0.6° C bedeckt
So, 21.01. 1:00 -0.1° C bedeckt
Ortszeit Temperatur Wetter
Di, 23.01. 0:30 1.1° C Nebel
Di, 23.01. 0:20 1.1° C Nebel
Di, 23.01. 0:10 1.1° C Nebel
Di, 23.01. 0:00 1.1° C Sprühregen
Mo, 22.01. 23:50 1.1° C Sprühregen
Mo, 22.01. 23:40 1.0° C Nebel
Mo, 22.01. 23:30 1.1° C Sprühregen
Mo, 22.01. 23:00 1.1° C Nebel
Mo, 22.01. 22:30 1.1° C bedeckt
Mo, 22.01. 22:00 1.1° C bedeckt
Mo, 22.01. 21:30 1.1° C bedeckt
Ortszeit Relative Feuchte Sichtweite
Mo, 22.01. 19:00 97% 3.3 km
Mo, 22.01. 13:00 90% 5.0 km
Mo, 22.01. 7:00 93% 4.1 km
Mo, 22.01. 1:00 100% 2.5 km
So, 21.01. 19:00 100% 0.3 km
So, 21.01. 13:00 100% 100 m
So, 21.01. 7:00 98% 2.9 km
So, 21.01. 1:00 96% 3.6 km
Ortszeit Relative Feuchte Sichtweite
Di, 23.01. 0:30 99% 0.4 km
Di, 23.01. 0:20 99% -
Di, 23.01. 0:10 100% -
Di, 23.01. 0:00 100% 0.2 km
Mo, 22.01. 23:50 100% -
Mo, 22.01. 23:40 100% -
Mo, 22.01. 23:30 99% 0.4 km
Mo, 22.01. 23:00 99% 0.9 km
Mo, 22.01. 22:30 99% 2.3 km
Mo, 22.01. 22:00 99% 3.0 km
Mo, 22.01. 21:30 97% 3.1 km
Ortszeit Niederschlagsmenge Niederschlagsart
Mo, 22.01. 19:00 0.8 l/m2 in 12 Std. Schnee, Regen
Mo, 22.01. 13:00 0.2 l/m2 in 6 Std. Schnee, Sprühregen
Mo, 22.01. 7:00 0.0 l/m2 in 12 Std. -
Mo, 22.01. 1:00 0.0 l/m2 in 6 Std. -
So, 21.01. 19:00 0.1 l/m2 in 12 Std. Sprühregen
So, 21.01. 13:00 0.0 l/m2 in 6 Std. -
So, 21.01. 7:00 0.0 l/m2 in 12 Std. -
So, 21.01. 1:00 0.0 l/m2 in 6 Std. -
Ortszeit Niederschlagsmenge Niederschlagsart
Di, 23.01. 0:30 0.1 l/m2 in 1 Std. -
Di, 23.01. 0:20 keine Meldung -
Di, 23.01. 0:10 keine Meldung -
Di, 23.01. 0:00 0.1 l/m2 in 1 Std. Regen
Mo, 22.01. 23:50 keine Meldung -
Mo, 22.01. 23:40 keine Meldung -
Mo, 22.01. 23:30 0.1 l/m2 in 1 Std. -
Mo, 22.01. 23:00 0.0 l/m2 in 1 Std. -
Mo, 22.01. 22:30 0.0 l/m2 in 1 Std. -
Mo, 22.01. 22:00 0.1 l/m2 in 1 Std. Sprühregen
Mo, 22.01. 21:30 0.1 l/m2 in 1 Std. Schnee
Ortszeit Stärke Spitze Richtung
km/h Bft. km/h Grad Sektor
Mo, 22.01. 19:00 4 1 25 100° O
Mo, 22.01. 13:00 14 3 32 130° SO
Mo, 22.01. 7:00 14 3 29 130° SO
Mo, 22.01. 1:00 9 2 20 150° SO
So, 21.01. 19:00 7 2 14 170° S
So, 21.01. 13:00 7 2 14 230° SW
So, 21.01. 7:00 4 1 11 350° N
So, 21.01. 1:00 0 0 11 - -
Ortszeit Stärke Spitze Richtung
km/h Bft. km/h Grad Sektor
Di, 23.01. 0:30 4 1 7 100° O
Di, 23.01. 0:20 4 1 - 100° O
Di, 23.01. 0:10 4 1 - 260° W
Di, 23.01. 0:00 2 1 6 220° SW
Mo, 22.01. 23:50 2 1 - 220° SW
Mo, 22.01. 23:40 4 1 - 230° SW
Mo, 22.01. 23:30 4 1 4 200° S
Mo, 22.01. 23:00 0 0 4 - -
Mo, 22.01. 22:30 2 1 2 300° NW
Mo, 22.01. 22:00 0 0 4 - -
Mo, 22.01. 21:30 4 1 4 100° O
Ortszeit Untergrenze Bedeckung Gattung
total tief tief mittel hoch
Mo, 22.01. 19:00 120 m 8/8 8/8 - - -
Mo, 22.01. 13:00 330 m 8/8 8/8 - - -
Mo, 22.01. 7:00 210 m 8/8 8/8 - - -
Mo, 22.01. 1:00 60 m 8/8 8/8 - - -
So, 21.01. 19:00 <30 m 8/8 8/8 - - -
So, 21.01. 13:00 <30 m 8/8 8/8 - - -
So, 21.01. 7:00 60 m 8/8 8/8 - - -
So, 21.01. 1:00 1500 m 8/8 8/8 - - -
Ortszeit Bedeckungsgrad in Achtel und Wolkenuntergrenze
Di, 23.01. 0:30 9 9 9
Di, 23.01. 0:20 9 9 9
Di, 23.01. 0:10 9 9 9
Di, 23.01. 0:00 7(30m) 7(120m) 8(240m)
Mo, 22.01. 23:50 7(30m) 7(120m) 8(240m)
Mo, 22.01. 23:40 7(30m) 8(180m)
Mo, 22.01. 23:30 8(30m)
Mo, 22.01. 23:00 8(60m)
Mo, 22.01. 22:30 8(90m)
Mo, 22.01. 22:00 8(90m)
Mo, 22.01. 21:30 8(90m)
Ortszeit Luftdruck NN (hPa) Tendenz (hPa in 3 Std.)
Mo, 22.01. 19:00 1010 + 2,3
Mo, 22.01. 13:00 1008 - 1,9
Mo, 22.01. 7:00 1011 - 2,3
Mo, 22.01. 1:00 1016 - 1,2
So, 21.01. 19:00 1018 + 0,6
So, 21.01. 13:00 1015 + 2,4
So, 21.01. 7:00 1009 + 2,8
So, 21.01. 1:00 1004 + 0,9
Ortszeit Luftdruck NN (hPa) Tendenz (hPa in 3 Std.)
Di, 23.01. 0:30 1014 + 2,3
Di, 23.01. 0:20 1014 keine Meldung
Di, 23.01. 0:10 1014 keine Meldung
Di, 23.01. 0:00 1014 + 2,6
Mo, 22.01. 23:50 1014 keine Meldung
Mo, 22.01. 23:40 1014 keine Meldung
Mo, 22.01. 23:30 1013 + 2,4
Mo, 22.01. 23:00 1013 + 2,6
Mo, 22.01. 22:30 1012 + 2,5
Mo, 22.01. 22:00 1012 + 2,2
Mo, 22.01. 21:30 1011 + 2,0
Ortszeit Schneehöhe (cm)
Mo, 22.01. 19:00 0
Mo, 22.01. 13:00 0
Mo, 22.01. 7:00 0
Mo, 22.01. 1:00 0
So, 21.01. 19:00 0
So, 21.01. 13:00 0
So, 21.01. 7:00 0
So, 21.01. 1:00 0
Ortszeit Schneehöhe (cm)
Di, 23.01. 0:30 0
Di, 23.01. 0:20 0
Di, 23.01. 0:10 0
Di, 23.01. 0:00 0
Mo, 22.01. 23:50 0
Mo, 22.01. 23:40 0
Mo, 22.01. 23:30 0
Mo, 22.01. 23:00 0
Mo, 22.01. 22:30 0
Mo, 22.01. 22:00 0
Mo, 22.01. 21:30 0
Link zu dieser Seite / Seite empfehlen

Das Wetter in ...